x

Neah Bay, - 6nm North Of Cape Flattery, Wa (traffic Separation Lighted Buoy) (46087) Wave Buoy

1:20 - Thu 17th Aug 2017 All times are PDT. -7 hours from GMT.

  • Sig Wave height 6.6ft
  • Swell Direction
  • Peak Period 11s
  • Average Period 8s
  • Wind
    4mph, 7mph gusts
  • Sea Temp 54°f
  • Air Temp 55°f
  • Sea Pressure 1023mb
  • Neah Bay, - 6nm North Of Cape Flattery, Wa     (traffic Separation Lighted Buoy)
  • Neah Bay, - 6nm North Of Cape Flattery, Wa     (traffic Separation Lighted Buoy)

More Historic Weather Station data

Upgrade to MSW Pro to gain access to the past 30 days of data for over 8000 Wavebouys and Weather Stations around the globe.

Join

Comparision Forecast

View Surf forecast
   
jeu. 08/17 1:20 6.5ft 11s 8s 4 7 mph 1023mb 54f 55f
12:50 6ft 11s 8s 4 7 mph 1023mb 54f 55f
12:20 7ft 11s 8s 4 7 mph 1022.9mb 54f 55f
11:50 7ft 11s 8s 4 7 mph 1022.8mb 54f 55f
11:20 7ft 11s 8s  -  2 mph 1022.7mb 54f 54f
10:50 7ft 11s 8s  -  2 mph 1022.4mb 54f 54f
10:20 8ft 11s 8s 2 4 mph 1022.3mb 53f 54f
9:50 6.5ft 11s 7s 2 7 mph 1022.1mb 53f 54f
9:20 7.5ft 11s 8s 2 7 mph 1022mb 53f 53f
8:50 8ft 10s 8s 2 4 mph 1021.9mb 53f 54f
8:20 7.5ft 11s 8s 2 2 mph 1021.9mb 53f 54f
7:50 7ft 11s 8s  -  2 mph 1021.9mb 53f 54f
7:20 7.5ft 10s 8s 2 2 mph 1021.4mb 53f 54f
6:50 7ft 10s 8s  -  2 mph 1021.2mb 54f 54f
6:20 6.5ft 10s 8s 2 4 mph 1021mb 54f 54f
5:50 7ft 11s 8s 4 7 mph 1020.9mb 53f 55f
5:20 7ft 10s 8s 4 9 mph 1020.7mb 53f 55f
4:50 7ft 11s 8s 7 9 mph 1020.8mb 53f 55f
4:20 6ft 11s 8s 7 9 mph 1020.8mb 53f 55f
3:50 6ft 10s 8s 7 9 mph 1020.7mb 53f 55f
3:20 6ft 11s 8s 9 11 mph 1020.6mb 53f 56f
2:50 6ft 10s 8s 4 7 mph 1020.6mb 53f 55f
2:20 5.5ft 11s 8s 7 9 mph 1020.6mb 54f 55f
1:50 5ft 11s 8s 7 9 mph 1020.4mb 54f 55f
1:20 5.5ft 10s 8s 7 9 mph 1020.3mb 54f 55f
12:50 5.5ft 10s 8s 7 9 mph 1020.3mb 54f 55f
12:20 4.5ft 9s 7s 9 11 mph 1020.2mb 54f 56f
mer. 08/16 11:50 5.5ft 10s 8s 7 9 mph 1020.2mb 54f 55f
11:20 5ft 9s 8s 9 11 mph 1020.1mb 54f 56f
10:50 4.5ft 9s 7s 11 13 mph 1019.9mb 54f 57f
10:20 4ft 8s 7s 7 9 mph 1020mb 54f 57f
9:50 4.5ft 10s 7s 9 11 mph 1019.8mb 54f 56f
9:20 4.5ft 8s 7s 7 9 mph 1019.6mb 54f 55f
8:50 4.5ft 10s 7s 7 7 mph 1019.5mb 54f 55f
8:20 5ft 9s 7s 7 9 mph 1019.4mb 54f 55f
7:50 5ft 9s 8s 9 11 mph 1019.3mb 54f 55f
7:20 5ft 10s 7s 9 11 mph 1019.3mb 54f 55f
6:50 5ft 10s 7s 9 9 mph 1019.3mb 54f 55f
6:20 5ft 10s 8s 9 11 mph 1019.4mb 55f 55f
5:50 5.5ft 9s 8s 7 9 mph 1019.5mb 54f 55f
5:20 5ft 9s 8s 9 11 mph 1019.6mb 54f 55f
4:50 5ft 9s 8s 9 9 mph 1019.7mb 54f 55f
4:20 5ft 10s 8s 9 11 mph 1019.8mb 54f 55f
3:50 5ft 10s 8s 9 11 mph 1019.9mb 53f 55f
3:20 5ft 10s 8s 11 13 mph 1020mb 53f 56f
2:50 5ft 10s 8s 11 13 mph 1020mb 53f 56f
2:20 5.5ft 9s 8s 9 13 mph 1020.1mb 53f 56f
1:50 5ft 9s 7s 4 7 mph 1020.1mb 53f 55f
1:20 5ft 11s 8s 7 9 mph 1020mb 53f 55f
12:50 5ft 9s 8s 7 9 mph 1020mb 53f 55f
12:20 5ft 9s 7s 7 7 mph 1020mb 53f 55f
11:50 5ft 10s 8s 4 4 mph 1019.8mb 53f 54f
11:20 4.5ft 10s 7s 4 7 mph 1019.7mb 53f 54f
10:50 4.5ft 10s 7s 7 7 mph 1019.3mb 53f 54f
10:20 5ft 10s 7s 4 7 mph 1019.2mb 53f 54f
9:50 4.5ft 10s 7s 4 4 mph 1019.3mb 53f 54f
9:20 5ft 10s 7s 4 4 mph 1019.2mb 53f 55f
8:50 5ft 10s 7s 2 4 mph 1019.1mb 53f 55f
8:20 5.5ft 10s 7s 4 4 mph 1019.1mb 53f 55f
7:50 5ft 9s 7s 4 4 mph 1019mb 53f 55f
7:20 5ft 10s 7s 4 4 mph 1018.9mb 53f 55f
6:50 5.5ft 9s 7s 4 4 mph 1018.6mb 53f 55f
6:20 6ft 9s 8s 4 4 mph 1018.3mb 53f 54f
5:50 6ft 10s 8s 2 4 mph 1018.1mb 53f 54f
5:20 5.5ft 9s 8s 2 4 mph 1018mb 53f 54f
4:50 6ft 10s 8s 2 4 mph 1018.1mb 53f 54f
4:20 5ft 10s 8s 4 4 mph 1018.1mb 53f 54f
3:50 5.5ft 9s 8s 4 7 mph 1018mb 53f 54f
3:20 5ft 10s 8s 4 7 mph 1017.9mb 53f 54f
2:50 5.5ft 10s 8s 4 7 mph 1017.8mb 53f 54f
2:20 4.5ft 9s 8s 7 9 mph 1017.6mb 53f 55f
1:20 4.5ft 10s 7s 7 9 mph 1017.5mb 54f 55f
12:50 4.5ft 10s 7s 7 9 mph 1017.4mb 53f 56f
12:20 4.5ft 10s 7s 7 9 mph 1017.3mb 53f 56f
mar. 08/15 11:50 4.5ft 10s 7s 7 9 mph 1017.3mb 53f 56f
11:20 4.5ft 11s 6s 9 11 mph 1017.2mb 54f 56f
10:50 3.5ft 10s 6s 7 7 mph 1017.1mb 54f 55f
10:20 3.5ft 10s 6s 7 7 mph 1016.9mb 54f 55f
9:50 3.5ft 10s 5s 7 7 mph 1016.8mb 54f 55f
9:20 3.5ft 11s 6s 9 9 mph 1016.5mb 54f 55f
8:50 3ft 9s 6s 4 7 mph 1016.2mb 54f 55f
8:20 3ft 9s 6s 7 7 mph 1016.1mb 54f 55f
7:50 3ft 8s 6s 9 11 mph 1015.9mb 54f 55f
7:20 3ft 8s 5s 9 11 mph 1015.9mb 54f 56f
6:50 2.5ft 9s 6s 11 11 mph 1016mb 54f 56f
6:20 2.5ft 8s 6s 9 11 mph 1016mb 54f 56f
5:50 2.5ft 8s 6s 9 11 mph 1016.1mb 54f 56f
5:20 3ft 9s 6s 9 9 mph 1016.1mb 54f 56f
4:50 3ft 9s 7s 7 9 mph 1016.2mb 54f 55f
4:20 2.5ft 9s 7s 9 11 mph 1016.3mb 54f 55f
3:50 3ft 9s 7s 7 7 mph 1016.3mb 54f 54f
3:20 3ft 9s 7s 4 7 mph 1016.5mb 54f 54f
2:50 3ft 8s 7s 9 11 mph 1016.6mb 54f 54f
2:20 3ft 9s 7s 9 11 mph 1016.5mb 54f 54f
1:50 3.5ft 9s 7s 7 7 mph 1016.2mb 54f 54f
1:20 3ft 9s 7s 7 9 mph 1016.2mb 54f 53f
12:50 3.5ft 8s 7s 4 4 mph 1016.1mb 54f 53f
12:20 3.5ft 8s 7s 7 9 mph 1016.2mb 54f 52f
11:50 3.5ft 9s 7s 7 9 mph 1015.9mb 53f 52f
11:20 3ft 9s 7s 9 11 mph 1015.8mb 53f 53f
10:50 3.5ft 9s 7s 9 11 mph 1015.6mb 53f 53f
10:20 3.5ft 9s 7s 4 7 mph 1015.4mb 53f 53f
9:50 3.5ft 9s 7s  -  0 mph 1015.1mb 53f 53f
9:20 3.5ft 9s 7s 4 7 mph 1015.3mb 53f 52f
8:50 4ft 9s 7s  -  2 mph 1014.8mb 53f 52f
8:20 4ft 8s 7s  -  2 mph 1014.9mb 53f 52f
7:50 4ft 8s 7s 2 2 mph 1014.7mb 53f 52f
7:20 4ft 9s 7s 4 7 mph 1013.9mb 53f 51f
6:50 4.5ft 9s 7s 4 7 mph 1014.1mb 53f 51f
6:20 4.5ft 9s 7s 2 4 mph 1014mb 53f 52f
5:50 5ft 9s 7s 2 4 mph 1013.8mb 53f 52f
5:20 4.5ft 9s 7s 2 2 mph 1013.7mb 53f 53f
4:50 4.5ft 9s 7s 4 7 mph 1013.8mb 53f 53f
4:20 4ft 9s 7s 4 7 mph 1013.6mb 53f 53f
3:50 4.5ft 9s 7s  -  2 mph 1013.7mb 53f 52f
3:20 4.5ft 9s 8s  -  2 mph 1013.7mb 53f 51f
2:50 4.5ft 10s 8s 2 2 mph 1013.7mb 53f 52f
2:20 4ft 9s 7s 2 4 mph 1013.7mb 53f 53f
1:50 4ft 10s 7s 4 7 mph 1013.7mb 53f 54f
1:20 4.5ft 9s 8s 4 7 mph 1013.7mb 53f 54f
12:50 5ft 10s 8s 7 9 mph 1013.8mb 53f 54f
12:20 4.5ft 10s 8s 7 7 mph 1013.8mb 53f 54f
lun. 08/14 11:50 5ft 10s 8s 7 9 mph 1013.8mb 53f 54f
11:20 5ft 9s 8s 7 7 mph 1013.7mb 54f 54f
10:50 5ft 9s 8s 7 9 mph 1013.9mb 54f 55f
10:20 4.5ft 9s 7s 7 9 mph 1013.9mb 54f 55f
9:50 4.5ft 9s 8s 7 7 mph 1014.1mb 55f 54f
9:20 4.5ft 10s 7s 7 7 mph 1014.1mb 55f 54f
8:50 4.5ft 10s 7s 7 9 mph 1014.2mb 55f 55f
8:20 5ft 9s 7s 4 7 mph 1014.4mb 55f 54f
7:50 5ft 9s 7s 9 9 mph 1014.2mb 55f 54f
7:20 5ft 9s 7s 7 11 mph 1014.4mb 55f 55f
6:50 4.5ft 10s 7s 9 9 mph 1014.3mb 56f 55f
6:20 6ft 10s 8s 4 7 mph 1014.5mb 56f 55f
5:50 5.5ft 10s 7s 4 7 mph 1014.8mb 55f 55f
4:50 6ft 9s 7s 4 7 mph 1015mb 55f 56f
4:20 7ft 10s 8s 2 4 mph 1015.2mb 55f 56f
3:50 7ft 10s 8s 2 4 mph 1015.5mb 55f 56f
3:20 6ft 10s 8s 2 4 mph 1015.7mb 54f 55f
2:50 6ft 11s 8s 2 4 mph 1016mb 54f 55f
2:20 6.5ft 10s 8s 4 4 mph 1016.3mb 54f 55f
1:50 6.5ft 10s 8s 4 4 mph 1016.4mb 54f 55f
1:20 6ft 10s 8s 2 4 mph 1016.3mb 54f 55f
12:50 6ft 10s 8s 2 2 mph 1016.5mb 54f 55f
12:20 6.5ft 10s 8s  -  2 mph 1016.7mb 54f 55f
11:50 6ft 9s 8s  -  2 mph 1016.8mb 53f 55f
11:20 7ft 10s 8s  -  2 mph 1016.8mb 53f 54f
10:50 6ft 10s 8s 2 4 mph 1016.6mb 53f 54f
10:20 6ft 10s 8s 2 4 mph 1016.6mb 53f 54f
9:50 6.5ft 10s 8s 4 7 mph 1016.6mb 53f 54f
9:20 6ft 10s 8s 4 7 mph 1016.5mb 53f 54f
8:50 7ft 10s 8s 4 9 mph 1016.4mb 53f 54f
8:20 7ft 10s 8s 7 9 mph 1016.2mb 53f 54f
7:50 9ft 10s 8s 2 4 mph 1016.3mb 53f 54f
7:20 7.5ft 11s 8s 2 7 mph 1016.2mb 53f 53f
6:50 7.5ft 10s 8s 2 4 mph 1016.1mb 53f 54f
6:20 7ft 9s 7s  -  2 mph 1016.2mb 53f 54f
5:50 7ft 11s 8s 2 2 mph 1016.1mb 53f 54f
5:20 7ft 10s 8s 2 4 mph 1016.1mb 53f 53f
4:50 7ft 10s 8s  -  2 mph 1016.1mb 53f 53f
4:20 7ft 9s 8s  -  2 mph 1016.3mb 53f 53f
3:50 7.5ft 10s 8s  -  2 mph 1016.6mb 53f 53f
3:20 7ft 11s 8s  -  2 mph 1016.8mb 53f 53f
2:50 8ft 10s 8s 4 4 mph 1016.9mb 53f 54f
2:20 7ft 9s 8s 4 7 mph 1016.9mb 53f 54f
1:50 7.5ft 10s 8s 7 7 mph 1016.9mb 53f 54f
1:20 7.5ft 10s 8s 7 9 mph 1017mb 53f 54f
12:50 6ft 10s  -  7 9 mph 1017.2mb 53f 55f
12:20 7ft 10s  -  7 9 mph 1017.1mb 53f 55f
dim. 08/13 11:50 6.5ft 10s 8s 7 7 mph 1017.4mb 54f 54f
11:20 7ft 10s 8s 7 9 mph 1017.5mb 54f 55f
10:50 7.5ft 10s 8s 7 9 mph 1017.5mb 54f 55f
10:20 8ft 10s 8s 7 9 mph 1017.5mb 54f 55f
9:50 7.5ft 11s 8s 7 9 mph 1017.4mb 54f 55f